Polzeath, United Kingdom
Current Conditions -  °F | °C
As of 2:20 PM on Thursday 18 Dec 2014 (Local Time) from EGHQ Reporting Station
Light Rain Light Rain  
Wind Chill: 11°   Ceiling: 500
Heat Index: 11°   Visibility: 2.5mi
Dew Point: 10°   Wind: 26mph
Humidity: 94%   Direction: 240°WSW
Pressure: 29.97"   Gusts: 38mph
Location:  50.57°N, 4.92°W
Report Text: EGHQ 181420Z 24023G33KT 4000 -RADZ BR BKN005 11/10 Q1015
Loading
Personal Weather Stations






























Interactive Weather Map New forecast layout! Learn more

10-Day Weather Forecast

Advertisements
Track Severe Weather on mobile